^^
Saratoga-Weather Station Historical Data
Daily Summary for July 29, 2020 Units:  Both    English   Metric
Daily Weekly Monthly Yearly Custom
  High: Low: Average:
Temperature: 41.9 °F /  5.5 °C 36 °F /  2.2 °C 39.2 °F /  4 °C
Dew Point: 39.4 °F /  4.1 °C 34.2 °F /  1.2 °C 37 °F /  2.8 °C
Humidity: 95% 86% 92%
Wind Speed: 6mph /  9.7km/h - 0.1mph /  0.1km/h
Wind Gust: 18mph /  29km/h - -
Wind- - West
Pressure: 30 in /  1016.9 hPa 29.6 in /  1003.0 hPa -
Precipitation: 0.14 in /  3.6 mm    
Historical Graphs
 
 
Tabular Data for July 29, 2020
Time Temperature Dew Point Pressure Wind Wind Speed Wind Gust Humidity Rainfall Rate (Hourly) solar
00:02 37.6 °F /  3.1 °C 36 °F /  2.2 °C 29.6in /  1003.0hPa Calm   13mph /  20.9km/h 94% 0.01in /  0.2mm 0 W/m2
00:07 37.8 °F /  3.2 °C 36.1 °F /  2.3 °C 29.6in /  1003.0hPa Calm     94% 0.01in /  0.2mm 0 W/m2
00:12 37.9 °F /  3.3 °C 36.3 °F /  2.4 °C 29.6in /  1003.4hPa Calm     94% 0.01in /  0.2mm 0 W/m2
00:17 37.9 °F /  3.3 °C 36.3 °F /  2.4 °C 29.6in /  1003.7hPa Calm     94% 0.01in /  0.2mm 0 W/m2
00:22 38.1 °F /  3.4 °C 36.3 °F /  2.4 °C 29.6in /  1003.4hPa Calm     93% 0in /  0.0mm 0 W/m2
00:27 38.3 °F /  3.5 °C 36.5 °F /  2.5 °C 29.6in /  1003.7hPa Calm     93% 0in /  0.0mm 0 W/m2
00:32 38.3 °F /  3.5 °C 36.5 °F /  2.5 °C 29.6in /  1003.7hPa Calm     93% 0in /  0.0mm 0 W/m2
00:37 38.5 °F /  3.6 °C 36.7 °F /  2.6 °C 29.6in /  1003.7hPa Calm     93% 0in /  0.0mm 0 W/m2
00:42 38.5 °F /  3.6 °C 36.7 °F /  2.6 °C 29.6in /  1003.7hPa Calm     93% 0in /  0.0mm 0 W/m2
00:47 38.7 °F /  3.7 °C 36.9 °F /  2.7 °C 29.7in /  1004.1hPa Calm     93% 0in /  0.0mm 0 W/m2
00:53 38.5 °F /  3.6 °C 36.7 °F /  2.6 °C 29.7in /  1004.1hPa Calm     93% 0in /  0.0mm 0 W/m2
00:58 38.3 °F /  3.5 °C 36.5 °F /  2.5 °C 29.7in /  1004.1hPa Calm     93% 0.01in /  0.2mm 0 W/m2
01:03 38.3 °F /  3.5 °C 36.5 °F /  2.5 °C 29.7in /  1004.1hPa Calm     93% 0.02in /  0.5mm 0 W/m2
01:08 38.1 °F /  3.4 °C 36.3 °F /  2.4 °C 29.7in /  1004.1hPa Calm     93% 0.02in /  0.5mm 0 W/m2
01:13 37.9 °F /  3.3 °C 36.1 °F /  2.3 °C 29.7in /  1004.4hPa Calm   3mph /  4.8km/h 93% 0.02in /  0.5mm 0 W/m2
01:18 37.8 °F /  3.2 °C 36 °F /  2.2 °C 29.7in /  1004.4hPa Calm     93% 0.03in /  0.8mm 0 W/m2
01:23 37.6 °F /  3.1 °C 35.8 °F /  2.1 °C 29.7in /  1004.4hPa Calm     93% 0.04in /  1.0mm 0 W/m2
01:28 37.4 °F /  3 °C 35.8 °F /  2.1 °C 29.7in /  1005.1hPa Calm   12mph /  19.3km/h 94% 0.04in /  1.0mm 0 W/m2
01:33 37 °F /  2.8 °C 35.4 °F /  1.9 °C 29.7in /  1005.1hPa Calm   1mph /  1.6km/h 94% 0.05in /  1.3mm 0 W/m2
01:38 36.9 °F /  2.7 °C 35.2 °F /  1.8 °C 29.7in /  1005.1hPa Calm     94% 0.05in /  1.3mm 0 W/m2
01:43 36.5 °F /  2.5 °C 34.7 °F /  1.5 °C 29.7in /  1005.1hPa Calm   1mph /  1.6km/h 93% 0.06in /  1.5mm 0 W/m2
01:48 36.3 °F /  2.4 °C 34.7 °F /  1.5 °C 29.7in /  1005.1hPa Calm   3mph /  4.8km/h 94% 0.06in /  1.5mm 0 W/m2
01:53 36.1 °F /  2.3 °C 34.5 °F /  1.4 °C 29.7in /  1005.4hPa WNW 6mph /  9.7km/h 9mph /  14.5km/h 94% 0.06in /  1.5mm 0 W/m2
01:58 36.1 °F /  2.3 °C 34.5 °F /  1.4 °C 29.7in /  1005.4hPa Calm   1mph /  1.6km/h 94% 0.06in /  1.5mm 0 W/m2
02:03 36 °F /  2.2 °C 34.2 °F /  1.2 °C 29.7in /  1005.4hPa Calm   1mph /  1.6km/h 93% 0.06in /  1.5mm 0 W/m2
02:08 36 °F /  2.2 °C 34.3 °F /  1.3 °C 29.7in /  1005.8hPa Calm     94% 0.05in /  1.3mm 0 W/m2
02:13 36 °F /  2.2 °C 34.3 °F /  1.3 °C 29.7in /  1005.8hPa Calm     94% 0.05in /  1.3mm 0 W/m2
02:18 36 °F /  2.2 °C 34.3 °F /  1.3 °C 29.7in /  1005.8hPa Calm     94% 0.04in /  1.0mm 0 W/m2
02:24 36 °F /  2.2 °C 34.3 °F /  1.3 °C 29.7in /  1005.8hPa Calm     94% 0.03in /  0.8mm 0 W/m2
02:29 36 °F /  2.2 °C 34.3 °F /  1.3 °C 29.7in /  1005.8hPa Calm     94% 0.03in /  0.8mm 0 W/m2
02:34 36.1 °F /  2.3 °C 34.5 °F /  1.4 °C 29.7in /  1006.1hPa Calm     94% 0.02in /  0.5mm 0 W/m2
02:39 36.1 °F /  2.3 °C 34.5 °F /  1.4 °C 29.7in /  1006.1hPa Calm     94% 0.02in /  0.5mm 0 W/m2
02:44 36.3 °F /  2.4 °C 34.7 °F /  1.5 °C 29.7in /  1006.1hPa Calm     94% 0.02in /  0.5mm 0 W/m2
02:49 36.7 °F /  2.6 °C 35.4 °F /  1.9 °C 29.7in /  1006.4hPa Calm   8mph /  12.9km/h 95% 0.02in /  0.5mm 0 W/m2
02:54 37 °F /  2.8 °C 35.4 °F /  1.9 °C 29.7in /  1006.4hPa Calm   1mph /  1.6km/h 94% 0.02in /  0.5mm 0 W/m2
02:59 37.2 °F /  2.9 °C 35.6 °F /  2 °C 29.7in /  1006.4hPa Calm   18mph /  29km/h 94% 0.01in /  0.2mm 0 W/m2
03:04 37.6 °F /  3.1 °C 36 °F /  2.2 °C 29.7in /  1006.4hPa Calm     94% 0in /  0.0mm 0 W/m2
03:09 37.8 °F /  3.2 °C 36 °F /  2.2 °C 29.7in /  1006.8hPa Calm   4mph /  6.4km/h 93% 0in /  0.0mm 0 W/m2
03:14 37.8 °F /  3.2 °C 36 °F /  2.2 °C 29.7in /  1006.8hPa Calm     93% 0in /  0.0mm 0 W/m2
03:19 37.8 °F /  3.2 °C 35.6 °F /  2 °C 29.7in /  1006.8hPa Calm   10mph /  16.1km/h 92% 0in /  0.0mm 0 W/m2
03:24 37.8 °F /  3.2 °C 35.6 °F /  2 °C 29.7in /  1006.8hPa Calm     92% 0in /  0.0mm 0 W/m2
03:29 37.8 °F /  3.2 °C 35.6 °F /  2 °C 29.7in /  1006.8hPa Calm   7mph /  11.3km/h 92% 0in /  0.0mm 0 W/m2
03:34 37.8 °F /  3.2 °C 35.6 °F /  2 °C 29.7in /  1007.1hPa Calm     92% 0in /  0.0mm 0 W/m2
03:39 37.8 °F /  3.2 °C 35.6 °F /  2 °C 29.7in /  1007.1hPa Calm     92% 0in /  0.0mm 0 W/m2
03:44 37.8 °F /  3.2 °C 35.6 °F /  2 °C 29.7in /  1007.1hPa Calm     92% 0in /  0.0mm 0 W/m2
03:49 37.8 °F /  3.2 °C 35.6 °F /  2 °C 29.7in /  1007.1hPa Calm     92% 0in /  0.0mm 0 W/m2
03:54 37.8 °F /  3.2 °C 35.6 °F /  2 °C 29.7in /  1007.1hPa Calm   11mph /  17.7km/h 92% 0in /  0.0mm 0 W/m2
03:59 37.8 °F /  3.2 °C 35.6 °F /  2 °C 29.7in /  1007.1hPa Calm   3mph /  4.8km/h 92% 0in /  0.0mm 0 W/m2
04:04 37.8 °F /  3.2 °C 35.6 °F /  2 °C 29.8in /  1007.5hPa Calm     92% 0in /  0.0mm 0 W/m2
04:09 37.8 °F /  3.2 °C 35.6 °F /  2 °C 29.8in /  1007.5hPa Calm     92% 0in /  0.0mm 0 W/m2
04:14 37.8 °F /  3.2 °C 35.6 °F /  2 °C 29.8in /  1007.5hPa Calm     92% 0in /  0.0mm 0 W/m2
04:19 37.8 °F /  3.2 °C 35.6 °F /  2 °C 29.8in /  1007.5hPa Calm   1mph /  1.6km/h 92% 0in /  0.0mm 0 W/m2
04:24 37.8 °F /  3.2 °C 35.6 °F /  2 °C 29.8in /  1007.5hPa Calm     92% 0in /  0.0mm 0 W/m2
04:29 37.8 °F /  3.2 °C 35.6 °F /  2 °C 29.8in /  1007.5hPa Calm   8mph /  12.9km/h 92% 0in /  0.0mm 0 W/m2
04:34 37.8 °F /  3.2 °C 35.6 °F /  2 °C 29.8in /  1007.5hPa Calm   3mph /  4.8km/h 92% 0in /  0.0mm 0 W/m2
04:39 37.6 °F /  3.1 °C 35.4 °F /  1.9 °C 29.8in /  1007.5hPa Calm   4mph /  6.4km/h 92% 0in /  0.0mm 0 W/m2
04:44 37.6 °F /  3.1 °C 35.4 °F /  1.9 °C 29.8in /  1007.5hPa Calm     92% 0in /  0.0mm 0 W/m2
04:49 37.6 °F /  3.1 °C 35.4 °F /  1.9 °C 29.8in /  1007.8hPa Calm   2mph /  3.2km/h 92% 0in /  0.0mm 0 W/m2
04:54 37.8 °F /  3.2 °C 35.6 °F /  2 °C 29.8in /  1007.8hPa Calm     92% 0in /  0.0mm 0 W/m2
04:59 37.8 °F /  3.2 °C 35.6 °F /  2 °C 29.8in /  1007.8hPa Calm   8mph /  12.9km/h 92% 0in /  0.0mm 0 W/m2
05:04 37.8 °F /  3.2 °C 35.6 °F /  2 °C 29.8in /  1007.8hPa Calm     92% 0in /  0.0mm 0 W/m2
05:10 37.8 °F /  3.2 °C 35.6 °F /  2 °C 29.8in /  1008.1hPa Calm     92% 0in /  0.0mm 0 W/m2
05:15 37.6 °F /  3.1 °C 35.4 °F /  1.9 °C 29.8in /  1008.1hPa Calm   1mph /  1.6km/h 92% 0in /  0.0mm 0 W/m2
05:20 37.8 °F /  3.2 °C 35.6 °F /  2 °C 29.8in /  1008.5hPa Calm     92% 0in /  0.0mm 0 W/m2
05:25 37.6 °F /  3.1 °C 35.4 °F /  1.9 °C 29.8in /  1008.5hPa Calm     92% 0in /  0.0mm 0 W/m2
05:30 37.8 °F /  3.2 °C 35.6 °F /  2 °C 29.8in /  1008.5hPa Calm     92% 0in /  0.0mm 0 W/m2
05:35 37.8 °F /  3.2 °C 35.6 °F /  2 °C 29.8in /  1008.5hPa Calm     92% 0in /  0.0mm 0 W/m2
05:40 37.8 °F /  3.2 °C 35.6 °F /  2 °C 29.8in /  1008.5hPa Calm     92% 0in /  0.0mm 0 W/m2
05:45 37.9 °F /  3.3 °C 35.8 °F /  2.1 °C 29.8in /  1008.5hPa Calm     92% 0in /  0.0mm 0 W/m2
05:50 37.9 °F /  3.3 °C 35.6 °F /  2 °C 29.8in /  1008.5hPa Calm   2mph /  3.2km/h 91% 0in /  0.0mm 0 W/m2
05:55 37.9 °F /  3.3 °C 35.8 °F /  2.1 °C 29.8in /  1008.5hPa Calm     92% 0in /  0.0mm 0 W/m2
06:00 37.9 °F /  3.3 °C 35.6 °F /  2 °C 29.8in /  1008.5hPa Calm     91% 0in /  0.0mm 0 W/m2
06:05 37.9 °F /  3.3 °C 35.6 °F /  2 °C 29.8in /  1008.5hPa Calm     91% 0in /  0.0mm 0 W/m2
06:10 37.9 °F /  3.3 °C 35.6 °F /  2 °C 29.8in /  1008.5hPa Calm     91% 0in /  0.0mm 0 W/m2
06:15 37.9 °F /  3.3 °C 35.8 °F /  2.1 °C 29.8in /  1008.8hPa Calm     92% 0in /  0.0mm 0 W/m2
06:20 37.9 °F /  3.3 °C 35.6 °F /  2 °C 29.8in /  1008.8hPa Calm     91% 0in /  0.0mm 0 W/m2
06:25 37.9 °F /  3.3 °C 35.6 °F /  2 °C 29.8in /  1008.8hPa Calm     91% 0in /  0.0mm 0 W/m2
06:30 37.9 °F /  3.3 °C 35.6 °F /  2 °C 29.8in /  1008.8hPa Calm     91% 0in /  0.0mm 0 W/m2
06:35 37.9 °F /  3.3 °C 35.8 °F /  2.1 °C 29.8in /  1008.8hPa Calm     92% 0in /  0.0mm 0 W/m2
06:40 37.8 °F /  3.2 °C 35.6 °F /  2 °C 29.8in /  1008.8hPa Calm     92% 0in /  0.0mm 0 W/m2
06:45 37.9 °F /  3.3 °C 35.8 °F /  2.1 °C 29.8in /  1009.1hPa Calm     92% 0in /  0.0mm 0 W/m2
06:50 37.8 °F /  3.2 °C 35.6 °F /  2 °C 29.8in /  1009.1hPa Calm     92% 0in /  0.0mm 0 W/m2
06:55 37.8 °F /  3.2 °C 35.6 °F /  2 °C 29.8in /  1009.1hPa Calm     92% 0in /  0.0mm 0 W/m2
07:00 37.8 °F /  3.2 °C 35.6 °F /  2 °C 29.8in /  1009.1hPa Calm     92% 0in /  0.0mm 0 W/m2
07:05 37.8 °F /  3.2 °C 35.6 °F /  2 °C 29.8in /  1009.1hPa Calm     92% 0in /  0.0mm 0 W/m2
07:10 37.8 °F /  3.2 °C 35.6 °F /  2 °C 29.8in /  1009.1hPa Calm     92% 0in /  0.0mm 0 W/m2
07:15 37.8 °F /  3.2 °C 35.6 °F /  2 °C 29.8in /  1009.1hPa Calm     92% 0in /  0.0mm 0 W/m2
07:20 37.8 °F /  3.2 °C 35.6 °F /  2 °C 29.8in /  1009.1hPa Calm     92% 0in /  0.0mm 0 W/m2
07:25 37.8 °F /  3.2 °C 35.6 °F /  2 °C 29.8in /  1009.5hPa Calm     92% 0in /  0.0mm 0 W/m2
07:30 37.8 °F /  3.2 °C 35.6 °F /  2 °C 29.8in /  1009.5hPa Calm     92% 0in /  0.0mm 0 W/m2
07:35 37.9 °F /  3.3 °C 36.1 °F /  2.3 °C 29.8in /  1009.5hPa Calm     93% 0in /  0.0mm 0 W/m2
07:40 37.9 °F /  3.3 °C 36.1 °F /  2.3 °C 29.8in /  1009.5hPa Calm     93% 0in /  0.0mm 0 W/m2
07:45 37.9 °F /  3.3 °C 36.1 °F /  2.3 °C 29.8in /  1009.5hPa Calm     93% 0in /  0.0mm 0 W/m2
07:50 37.9 °F /  3.3 °C 36.1 °F /  2.3 °C 29.8in /  1009.5hPa Calm     93% 0in /  0.0mm 0 W/m2
07:55 37.9 °F /  3.3 °C 36.1 °F /  2.3 °C 29.8in /  1009.5hPa Calm     93% 0in /  0.0mm 0 W/m2
08:00 38.1 °F /  3.4 °C 36.3 °F /  2.4 °C 29.8in /  1009.5hPa West 3mph /  4.8km/h 3mph /  4.8km/h 93% 0in /  0.0mm 0 W/m2
08:05 38.1 °F /  3.4 °C 36.3 °F /  2.4 °C 29.8in /  1009.5hPa Calm     93% 0in /  0.0mm 0 W/m2
08:11 38.3 °F /  3.5 °C 36.1 °F /  2.3 °C 29.8in /  1009.8hPa Calm     92% 0in /  0.0mm 0 W/m2
08:16 38.5 °F /  3.6 °C 36.3 °F /  2.4 °C 29.8in /  1009.8hPa Calm     92% 0in /  0.0mm 0 W/m2
08:21 38.5 °F /  3.6 °C 36.7 °F /  2.6 °C 29.8in /  1009.8hPa Calm   1mph /  1.6km/h 93% 0in /  0.0mm 0 W/m2
08:26 38.7 °F /  3.7 °C 36.9 °F /  2.7 °C 29.8in /  1009.8hPa Calm     93% 0in /  0.0mm 0 W/m2
08:31 38.7 °F /  3.7 °C 36.9 °F /  2.7 °C 29.8in /  1010.2hPa Calm     93% 0in /  0.0mm 0 W/m2
08:36 38.7 °F /  3.7 °C 36.5 °F /  2.5 °C 29.8in /  1010.2hPa Calm     92% 0in /  0.0mm 5 W/m2
08:41 38.7 °F /  3.7 °C 36.5 °F /  2.5 °C 29.8in /  1010.2hPa Calm     92% 0in /  0.0mm 9 W/m2
08:46 38.7 °F /  3.7 °C 36.5 °F /  2.5 °C 29.8in /  1010.2hPa Calm     92% 0in /  0.0mm 12 W/m2
08:51 38.7 °F /  3.7 °C 36.5 °F /  2.5 °C 29.8in /  1010.2hPa Calm     92% 0in /  0.0mm 25 W/m2
08:56 38.7 °F /  3.7 °C 36.5 °F /  2.5 °C 29.8in /  1010.5hPa Calm     92% 0in /  0.0mm 9 W/m2
09:01 38.8 °F /  3.8 °C 36.7 °F /  2.6 °C 29.8in /  1010.2hPa Calm     92% 0in /  0.0mm 12 W/m2
09:06 38.8 °F /  3.8 °C 36.7 °F /  2.6 °C 29.8in /  1010.2hPa Calm     92% 0in /  0.0mm 14 W/m2
09:11 38.8 °F /  3.8 °C 36.7 °F /  2.6 °C 29.8in /  1010.2hPa Calm     92% 0in /  0.0mm 23 W/m2
09:16 38.8 °F /  3.8 °C 36.7 °F /  2.6 °C 29.8in /  1010.5hPa Calm     92% 0in /  0.0mm 16 W/m2
09:21 38.8 °F /  3.8 °C 36.7 °F /  2.6 °C 29.8in /  1010.5hPa Calm     92% 0in /  0.0mm 18 W/m2
09:26 39 °F /  3.9 °C 36.9 °F /  2.7 °C 29.8in /  1010.5hPa Calm     92% 0in /  0.0mm 16 W/m2
09:31 39 °F /  3.9 °C 36.9 °F /  2.7 °C 29.8in /  1010.5hPa Calm     92% 0in /  0.0mm 25 W/m2
09:36 39 °F /  3.9 °C 36.9 °F /  2.7 °C 29.8in /  1010.5hPa Calm     92% 0in /  0.0mm 23 W/m2
09:41 39 °F /  3.9 °C 36.9 °F /  2.7 °C 29.8in /  1010.5hPa Calm     92% 0in /  0.0mm 28 W/m2
09:46 39.2 °F /  4 °C 37 °F /  2.8 °C 29.8in /  1010.2hPa Calm     92% 0in /  0.0mm 77 W/m2
09:51 39.4 °F /  4.1 °C 37.2 °F /  2.9 °C 29.8in /  1010.5hPa Calm     92% 0in /  0.0mm 53 W/m2
09:56 39.4 °F /  4.1 °C 37.2 °F /  2.9 °C 29.8in /  1010.5hPa Calm     92% 0in /  0.0mm 54 W/m2
10:01 39.6 °F /  4.2 °C 37.4 °F /  3 °C 29.8in /  1010.5hPa Calm     92% 0in /  0.0mm 98 W/m2
10:06 39.7 °F /  4.3 °C 37.4 °F /  3 °C 29.9in /  1010.8hPa Calm     91% 0in /  0.0mm 105 W/m2
10:11 39.9 °F /  4.4 °C 37.6 °F /  3.1 °C 29.9in /  1010.8hPa Calm     91% 0in /  0.0mm 137 W/m2
10:16 40.1 °F /  4.5 °C 37.8 °F /  3.2 °C 29.9in /  1010.8hPa Calm   1mph /  1.6km/h 91% 0in /  0.0mm 97 W/m2
10:21 40.3 °F /  4.6 °C 37.6 °F /  3.1 °C 29.9in /  1010.8hPa Calm     90% 0in /  0.0mm 90 W/m2
10:26 40.3 °F /  4.6 °C 37.6 °F /  3.1 °C 29.9in /  1010.8hPa Calm     90% 0in /  0.0mm 146 W/m2
10:31 40.5 °F /  4.7 °C 37.8 °F /  3.2 °C 29.9in /  1010.8hPa Calm     90% 0in /  0.0mm 181 W/m2
10:36 40.6 °F /  4.8 °C 37.9 °F /  3.3 °C 29.9in /  1010.8hPa Calm     90% 0in /  0.0mm 146 W/m2
10:41 40.6 °F /  4.8 °C 37.9 °F /  3.3 °C 29.9in /  1011.2hPa Calm     90% 0in /  0.0mm 56 W/m2
10:46 40.5 °F /  4.7 °C 37.4 °F /  3 °C 29.9in /  1010.8hPa Calm     89% 0in /  0.0mm 116 W/m2
10:51 40.6 °F /  4.8 °C 37.9 °F /  3.3 °C 29.9in /  1010.8hPa Calm     90% 0in /  0.0mm 116 W/m2
10:56 40.6 °F /  4.8 °C 37.9 °F /  3.3 °C 29.9in /  1011.2hPa Calm     90% 0in /  0.0mm 155 W/m2
11:01 40.8 °F /  4.9 °C 38.5 °F /  3.6 °C 29.9in /  1011.2hPa Calm     91% 0in /  0.0mm 97 W/m2
11:06 40.8 °F /  4.9 °C 38.1 °F /  3.4 °C 29.9in /  1011.2hPa Calm   1mph /  1.6km/h 90% 0in /  0.0mm 93 W/m2
11:11 40.8 °F /  4.9 °C 38.1 °F /  3.4 °C 29.9in /  1011.2hPa Calm     90% 0in /  0.0mm 84 W/m2
11:16 40.8 °F /  4.9 °C 38.1 °F /  3.4 °C 29.9in /  1011.2hPa Calm     90% 0in /  0.0mm 83 W/m2
11:21 41 °F /  5 °C 38.3 °F /  3.5 °C 29.9in /  1011.2hPa Calm     90% 0in /  0.0mm 172 W/m2
11:26 41.2 °F /  5.1 °C 38.5 °F /  3.6 °C 29.9in /  1011.2hPa Calm     90% 0in /  0.0mm 202 W/m2
11:31 41.4 °F /  5.2 °C 38.7 °F /  3.7 °C 29.9in /  1011.2hPa Calm     90% 0in /  0.0mm 230 W/m2
11:36 41.5 °F /  5.3 °C 38.8 °F /  3.8 °C 29.9in /  1011.2hPa Calm     90% 0in /  0.0mm 160 W/m2
11:41 41.9 °F /  5.5 °C 38.8 °F /  3.8 °C 29.9in /  1011.5hPa Calm   2mph /  3.2km/h 89% 0in /  0.0mm 128 W/m2
11:46 41.7 °F /  5.4 °C 38.7 °F /  3.7 °C 29.9in /  1011.5hPa Calm     89% 0in /  0.0mm 83 W/m2
11:51 41.7 °F /  5.4 °C 38.5 °F /  3.6 °C 29.9in /  1011.5hPa Calm   2mph /  3.2km/h 88% 0in /  0.0mm 51 W/m2
11:56 41 °F /  5 °C 37.8 °F /  3.2 °C 29.9in /  1011.5hPa Calm     88% 0.01in /  0.2mm 51 W/m2
12:01 40.3 °F /  4.6 °C 37.6 °F /  3.1 °C 29.9in /  1011.5hPa Calm     90% 0.02in /  0.5mm 60 W/m2
12:06 39.9 °F /  4.4 °C 37.6 °F /  3.1 °C 29.9in /  1011.9hPa Calm     91% 0.02in /  0.5mm 65 W/m2
12:11 39.9 °F /  4.4 °C 37.6 °F /  3.1 °C 29.9in /  1011.5hPa Calm     91% 0.02in /  0.5mm 72 W/m2
12:16 39.9 °F /  4.4 °C 37.8 °F /  3.2 °C 29.9in /  1011.5hPa Calm     92% 0.02in /  0.5mm 185 W/m2
12:22 40.3 °F /  4.6 °C 38.1 °F /  3.4 °C 29.9in /  1011.5hPa Calm     92% 0.02in /  0.5mm 142 W/m2
12:27 40.5 °F /  4.7 °C 38.7 °F /  3.7 °C 29.9in /  1011.5hPa Calm     93% 0.02in /  0.5mm 70 W/m2
12:32 40.6 °F /  4.8 °C 38.8 °F /  3.8 °C 29.9in /  1011.5hPa Calm   1mph /  1.6km/h 93% 0.02in /  0.5mm 63 W/m2
12:37 41 °F /  5 °C 39.2 °F /  4 °C 29.9in /  1011.5hPa Calm     93% 0.02in /  0.5mm 35 W/m2
12:42 41.2 °F /  5.1 °C 39.4 °F /  4.1 °C 29.9in /  1011.5hPa Calm     93% 0.03in /  0.8mm 39 W/m2
12:47 41 °F /  5 °C 38.8 °F /  3.8 °C 29.9in /  1011.5hPa Calm     92% 0.05in /  1.3mm 35 W/m2
12:52 40.6 °F /  4.8 °C 38.5 °F /  3.6 °C 29.9in /  1011.5hPa Calm     92% 0.04in /  1.0mm 26 W/m2
12:57 40.5 °F /  4.7 °C 38.7 °F /  3.7 °C 29.9in /  1011.5hPa Calm     93% 0.03in /  0.8mm 97 W/m2
13:02 40.6 °F /  4.8 °C 38.8 °F /  3.8 °C 29.9in /  1011.5hPa Calm     93% 0.03in /  0.8mm 77 W/m2
13:07 40.8 °F /  4.9 °C 38.7 °F /  3.7 °C 29.9in /  1011.5hPa Calm   1mph /  1.6km/h 92% 0.03in /  0.8mm 53 W/m2
13:12 40.8 °F /  4.9 °C 38.7 °F /  3.7 °C 29.9in /  1011.5hPa Calm   18mph /  29km/h 92% 0.03in /  0.8mm 56 W/m2
13:17 40.8 °F /  4.9 °C 38.5 °F /  3.6 °C 29.9in /  1011.5hPa Calm   1mph /  1.6km/h 91% 0.03in /  0.8mm 49 W/m2
13:22 40.6 °F /  4.8 °C 37.9 °F /  3.3 °C 29.9in /  1011.5hPa Calm   18mph /  29km/h 90% 0.03in /  0.8mm 44 W/m2
13:27 40.5 °F /  4.7 °C 37.8 °F /  3.2 °C 29.9in /  1011.2hPa Calm     90% 0.03in /  0.8mm 53 W/m2
13:32 40.5 °F /  4.7 °C 37.8 °F /  3.2 °C 29.9in /  1011.5hPa Calm   7mph /  11.3km/h 90% 0.03in /  0.8mm 65 W/m2
13:37 40.5 °F /  4.7 °C 37.8 °F /  3.2 °C 29.9in /  1011.5hPa Calm     90% 0.03in /  0.8mm 83 W/m2
13:43 40.5 °F /  4.7 °C 38.1 °F /  3.4 °C 29.9in /  1011.5hPa Calm     91% 0.02in /  0.5mm 67 W/m2
13:48 40.6 °F /  4.8 °C 38.3 °F /  3.5 °C 29.9in /  1011.5hPa Calm   5mph /  8km/h 91% 0in /  0.0mm 65 W/m2
13:53 40.8 °F /  4.9 °C 38.5 °F /  3.6 °C 29.9in /  1011.2hPa Calm     91% 0in /  0.0mm 53 W/m2
13:58 40.8 °F /  4.9 °C 38.5 °F /  3.6 °C 29.9in /  1011.5hPa Calm     91% 0in /  0.0mm 62 W/m2
14:03 41 °F /  5 °C 38.7 °F /  3.7 °C 29.9in /  1011.5hPa Calm     91% 0in /  0.0mm 60 W/m2
14:08 41 °F /  5 °C 38.3 °F /  3.5 °C 29.9in /  1011.9hPa Calm   1mph /  1.6km/h 90% 0in /  0.0mm 56 W/m2
14:13 41.2 °F /  5.1 °C 38.5 °F /  3.6 °C 29.9in /  1011.9hPa Calm     90% 0in /  0.0mm 105 W/m2
14:18 41.4 °F /  5.2 °C 38.3 °F /  3.5 °C 29.9in /  1011.9hPa Calm   1mph /  1.6km/h 89% 0in /  0.0mm 97 W/m2
14:23 41.4 °F /  5.2 °C 38.3 °F /  3.5 °C 29.9in /  1011.9hPa Calm   15mph /  24.1km/h 89% 0in /  0.0mm 26 W/m2
14:28 40.8 °F /  4.9 °C 37.8 °F /  3.2 °C 29.9in /  1012.2hPa Calm     89% 0.02in /  0.5mm 40 W/m2
14:33 40.5 °F /  4.7 °C 37.8 °F /  3.2 °C 29.9in /  1012.2hPa Calm     90% 0.02in /  0.5mm 98 W/m2
14:38 40.5 °F /  4.7 °C 38.1 °F /  3.4 °C 29.9in /  1012.2hPa Calm     91% 0.02in /  0.5mm 86 W/m2
14:43 40.5 °F /  4.7 °C 37.8 °F /  3.2 °C 29.9in /  1012.2hPa Calm   1mph /  1.6km/h 90% 0.02in /  0.5mm 53 W/m2
14:48 40.6 °F /  4.8 °C 37.9 °F /  3.3 °C 29.9in /  1012.2hPa Calm     90% 0.02in /  0.5mm 39 W/m2
14:53 40.5 °F /  4.7 °C 38.1 °F /  3.4 °C 29.9in /  1012.2hPa Calm     91% 0.02in /  0.5mm 54 W/m2
14:58 40.6 °F /  4.8 °C 38.3 °F /  3.5 °C 29.9in /  1012.5hPa Calm     91% 0.02in /  0.5mm 69 W/m2
15:03 40.6 °F /  4.8 °C 38.3 °F /  3.5 °C 29.9in /  1012.5hPa Calm     91% 0.02in /  0.5mm 65 W/m2
15:08 40.6 °F /  4.8 °C 38.3 °F /  3.5 °C 29.9in /  1012.5hPa Calm     91% 0.02in /  0.5mm 90 W/m2
15:13 40.6 °F /  4.8 °C 38.3 °F /  3.5 °C 29.9in /  1012.5hPa Calm     91% 0.02in /  0.5mm 37 W/m2
15:18 40.6 °F /  4.8 °C 38.3 °F /  3.5 °C 29.9in /  1012.9hPa Calm     91% 0.02in /  0.5mm 28 W/m2
15:23 40.6 °F /  4.8 °C 38.3 °F /  3.5 °C 29.9in /  1012.9hPa Calm   1mph /  1.6km/h 91% 0.02in /  0.5mm 33 W/m2
15:28 40.6 °F /  4.8 °C 38.3 °F /  3.5 °C 29.9in /  1012.9hPa Calm     91% 0.01in /  0.2mm 44 W/m2
15:33 40.6 °F /  4.8 °C 38.3 °F /  3.5 °C 29.9in /  1012.9hPa Calm     91% 0.01in /  0.2mm 26 W/m2
15:38 40.6 °F /  4.8 °C 38.3 °F /  3.5 °C 29.9in /  1012.9hPa Calm     91% 0.01in /  0.2mm 25 W/m2
15:43 40.8 °F /  4.9 °C 38.5 °F /  3.6 °C 29.9in /  1012.9hPa Calm     91% 0in /  0.0mm 32 W/m2
15:48 41.2 °F /  5.1 °C 38.5 °F /  3.6 °C 29.9in /  1013.2hPa Calm     90% 0in /  0.0mm 44 W/m2
15:53 41.4 °F /  5.2 °C 38.7 °F /  3.7 °C 29.9in /  1013.2hPa Calm     90% 0in /  0.0mm 58 W/m2
15:58 41.5 °F /  5.3 °C 38.8 °F /  3.8 °C 29.9in /  1013.2hPa Calm   2mph /  3.2km/h 90% 0in /  0.0mm 49 W/m2
16:03 41.7 °F /  5.4 °C 38.5 °F /  3.6 °C 29.9in /  1013.5hPa Calm   1mph /  1.6km/h 88% 0in /  0.0mm 46 W/m2
16:08 41.5 °F /  5.3 °C 38.3 °F /  3.5 °C 29.9in /  1013.5hPa Calm   1mph /  1.6km/h 88% 0in /  0.0mm 26 W/m2
16:13 41.4 °F /  5.2 °C 38.1 °F /  3.4 °C 29.9in /  1013.5hPa Calm     88% 0in /  0.0mm 32 W/m2
16:18 41.4 °F /  5.2 °C 37.8 °F /  3.2 °C 29.9in /  1013.5hPa Calm     87% 0in /  0.0mm 39 W/m2
16:23 41.4 °F /  5.2 °C 38.1 °F /  3.4 °C 29.9in /  1013.5hPa Calm     88% 0in /  0.0mm 39 W/m2
16:28 41.4 °F /  5.2 °C 38.1 °F /  3.4 °C 29.9in /  1013.5hPa Calm     88% 0in /  0.0mm 19 W/m2
16:33 41.5 °F /  5.3 °C 37.9 °F /  3.3 °C 29.9in /  1013.5hPa Calm     87% 0in /  0.0mm 18 W/m2
16:38 41.4 °F /  5.2 °C 38.1 °F /  3.4 °C 29.9in /  1013.5hPa Calm     88% 0in /  0.0mm 16 W/m2
16:43 41.4 °F /  5.2 °C 38.1 °F /  3.4 °C 29.9in /  1013.5hPa Calm     88% 0in /  0.0mm 16 W/m2
16:48 41.4 °F /  5.2 °C 38.1 °F /  3.4 °C 29.9in /  1013.5hPa Calm     88% 0in /  0.0mm 18 W/m2
16:53 41.4 °F /  5.2 °C 38.1 °F /  3.4 °C 29.9in /  1013.9hPa Calm     88% 0in /  0.0mm 18 W/m2
16:58 41.5 °F /  5.3 °C 38.3 °F /  3.5 °C 29.9in /  1013.9hPa Calm   1mph /  1.6km/h 88% 0in /  0.0mm 18 W/m2
17:03 41.5 °F /  5.3 °C 38.3 °F /  3.5 °C 29.9in /  1013.5hPa Calm     88% 0in /  0.0mm 16 W/m2
17:08 41.5 °F /  5.3 °C 37.9 °F /  3.3 °C 29.9in /  1013.5hPa Calm     87% 0in /  0.0mm 12 W/m2
17:13 41.5 °F /  5.3 °C 37.9 °F /  3.3 °C 29.9in /  1013.5hPa Calm     87% 0in /  0.0mm 11 W/m2
17:18 41.4 °F /  5.2 °C 37.8 °F /  3.2 °C 29.9in /  1013.5hPa Calm     87% 0in /  0.0mm 9 W/m2
17:23 41.4 °F /  5.2 °C 37.8 °F /  3.2 °C 29.9in /  1013.9hPa Calm     87% 0in /  0.0mm 5 W/m2
17:28 41.4 °F /  5.2 °C 37.8 °F /  3.2 °C 29.9in /  1013.9hPa Calm     87% 0in /  0.0mm 0 W/m2
17:33 41.4 °F /  5.2 °C 37.8 °F /  3.2 °C 29.9in /  1013.9hPa Calm     87% 0in /  0.0mm 0 W/m2
17:38 41.4 °F /  5.2 °C 37.6 °F /  3.1 °C 29.9in /  1013.9hPa Calm   1mph /  1.6km/h 86% 0in /  0.0mm 0 W/m2
17:43 41.4 °F /  5.2 °C 37.8 °F /  3.2 °C 30in /  1014.2hPa Calm     87% 0in /  0.0mm 0 W/m2
17:48 41.2 °F /  5.1 °C 37.4 °F /  3 °C 29.9in /  1013.9hPa West 0.9mph /  1.4km/h 1mph /  1.6km/h 86% 0in /  0.0mm 0 W/m2
17:53 41.2 °F /  5.1 °C 37.4 °F /  3 °C 30in /  1014.2hPa Calm     86% 0in /  0.0mm 0 W/m2
17:59 41.2 °F /  5.1 °C 37.4 °F /  3 °C 30in /  1014.2hPa Calm   1mph /  1.6km/h 86% 0in /  0.0mm 0 W/m2
18:04 41.2 °F /  5.1 °C 37.4 °F /  3 °C 30in /  1014.2hPa Calm     86% 0in /  0.0mm 0 W/m2
18:09 41 °F /  5 °C 37.2 °F /  2.9 °C 30in /  1014.6hPa Calm     86% 0in /  0.0mm 0 W/m2
18:14 40.8 °F /  4.9 °C 37.2 °F /  2.9 °C 30in /  1014.6hPa Calm     87% 0in /  0.0mm 0 W/m2
18:19 40.8 °F /  4.9 °C 37.2 °F /  2.9 °C 30in /  1014.6hPa Calm     87% 0in /  0.0mm 0 W/m2
18:24 40.6 °F /  4.8 °C 37 °F /  2.8 °C 30in /  1014.6hPa Calm     87% 0in /  0.0mm 0 W/m2
18:29 40.5 °F /  4.7 °C 37.2 °F /  2.9 °C 30in /  1014.6hPa Calm     88% 0in /  0.0mm 0 W/m2
18:34 40.3 °F /  4.6 °C 37.2 °F /  2.9 °C 30in /  1014.6hPa Calm     89% 0in /  0.0mm 0 W/m2
18:39 40.1 °F /  4.5 °C 37 °F /  2.8 °C 30in /  1014.6hPa Calm     89% 0in /  0.0mm 0 W/m2
18:44 40.1 °F /  4.5 °C 37.4 °F /  3 °C 30in /  1014.9hPa Calm     90% 0in /  0.0mm 0 W/m2
18:49 39.7 °F /  4.3 °C 37 °F /  2.8 °C 30in /  1014.9hPa Calm     90% 0in /  0.0mm 0 W/m2
18:54 39.6 °F /  4.2 °C 37.2 °F /  2.9 °C 30in /  1014.9hPa Calm     91% 0in /  0.0mm 0 W/m2
18:59 39.6 °F /  4.2 °C 37.2 °F /  2.9 °C 30in /  1015.2hPa Calm     91% 0in /  0.0mm 0 W/m2
19:04 39.2 °F /  4 °C 36.9 °F /  2.7 °C 30in /  1015.2hPa Calm     91% 0in /  0.0mm 0 W/m2
19:09 39 °F /  3.9 °C 36.9 °F /  2.7 °C 30in /  1015.2hPa Calm     92% 0in /  0.0mm 0 W/m2
19:14 38.8 °F /  3.8 °C 36.7 °F /  2.6 °C 30in /  1015.2hPa Calm     92% 0in /  0.0mm 0 W/m2
19:19 38.8 °F /  3.8 °C 37 °F /  2.8 °C 30in /  1015.2hPa Calm     93% 0in /  0.0mm 0 W/m2
19:24 38.8 °F /  3.8 °C 37 °F /  2.8 °C 30in /  1015.2hPa Calm     93% 0in /  0.0mm 0 W/m2
19:29 38.8 °F /  3.8 °C 37 °F /  2.8 °C 30in /  1015.2hPa Calm     93% 0in /  0.0mm 0 W/m2
19:34 38.8 °F /  3.8 °C 37 °F /  2.8 °C 30in /  1015.6hPa Calm     93% 0in /  0.0mm 0 W/m2
19:39 38.8 °F /  3.8 °C 37 °F /  2.8 °C 30in /  1015.6hPa Calm     93% 0in /  0.0mm 0 W/m2
19:44 38.8 °F /  3.8 °C 37 °F /  2.8 °C 30in /  1015.9hPa Calm     93% 0in /  0.0mm 0 W/m2
19:49 38.7 °F /  3.7 °C 37 °F /  2.8 °C 30in /  1015.9hPa Calm     94% 0in /  0.0mm 0 W/m2
19:54 38.7 °F /  3.7 °C 37 °F /  2.8 °C 30in /  1015.9hPa Calm     94% 0in /  0.0mm 0 W/m2
19:59 38.5 °F /  3.6 °C 36.9 °F /  2.7 °C 30in /  1015.9hPa Calm     94% 0in /  0.0mm 0 W/m2
20:04 38.3 °F /  3.5 °C 36.7 °F /  2.6 °C 30in /  1015.9hPa Calm     94% 0in /  0.0mm 0 W/m2
20:09 38.5 °F /  3.6 °C 36.9 °F /  2.7 °C 30in /  1015.9hPa Calm     94% 0in /  0.0mm 0 W/m2
20:14 38.5 °F /  3.6 °C 36.9 °F /  2.7 °C 30in /  1015.9hPa Calm     94% 0in /  0.0mm 0 W/m2
20:19 38.7 °F /  3.7 °C 37 °F /  2.8 °C 30in /  1015.9hPa Calm     94% 0in /  0.0mm 0 W/m2
20:24 38.7 °F /  3.7 °C 37 °F /  2.8 °C 30in /  1015.9hPa Calm     94% 0in /  0.0mm 0 W/m2
20:29 38.7 °F /  3.7 °C 37 °F /  2.8 °C 30in /  1016.3hPa Calm     94% 0in /  0.0mm 0 W/m2
20:34 38.7 °F /  3.7 °C 37 °F /  2.8 °C 30in /  1016.3hPa Calm     94% 0in /  0.0mm 0 W/m2
20:39 38.8 °F /  3.8 °C 37.6 °F /  3.1 °C 30in /  1016.3hPa Calm     95% 0in /  0.0mm 0 W/m2
20:44 39.2 °F /  4 °C 37.6 °F /  3.1 °C 30in /  1016.3hPa Calm     94% 0in /  0.0mm 0 W/m2
20:49 39.6 °F /  4.2 °C 37.9 °F /  3.3 °C 30in /  1016.3hPa Calm     94% 0in /  0.0mm 0 W/m2
20:54 39.7 °F /  4.3 °C 38.1 °F /  3.4 °C 30in /  1016.3hPa Calm     94% 0in /  0.0mm 0 W/m2
20:59 39.9 °F /  4.4 °C 38.1 °F /  3.4 °C 30in /  1016.3hPa Calm     93% 0in /  0.0mm 0 W/m2
21:04 39.9 °F /  4.4 °C 38.1 °F /  3.4 °C 30in /  1016.3hPa Calm     93% 0in /  0.0mm 0 W/m2
21:09 39.9 °F /  4.4 °C 37.8 °F /  3.2 °C 30in /  1016.3hPa Calm     92% 0in /  0.0mm 0 W/m2
21:14 39.9 °F /  4.4 °C 37.8 °F /  3.2 °C 30in /  1016.3hPa Calm     92% 0in /  0.0mm 0 W/m2
21:19 40.1 °F /  4.5 °C 37.9 °F /  3.3 °C 30in /  1016.3hPa Calm     92% 0in /  0.0mm 0 W/m2
21:25 39.9 °F /  4.4 °C 37.8 °F /  3.2 °C 30in /  1016.3hPa Calm     92% 0in /  0.0mm 0 W/m2
21:30 39.9 °F /  4.4 °C 37.8 °F /  3.2 °C 30in /  1016.3hPa Calm     92% 0in /  0.0mm 0 W/m2
21:35 39.7 °F /  4.3 °C 37.6 °F /  3.1 °C 30in /  1016.3hPa Calm     92% 0in /  0.0mm 0 W/m2
21:40 39.6 °F /  4.2 °C 37.4 °F /  3 °C 30in /  1016.3hPa Calm     92% 0in /  0.0mm 0 W/m2
21:45 39.6 °F /  4.2 °C 37.8 °F /  3.2 °C 30in /  1016.3hPa Calm     93% 0in /  0.0mm 0 W/m2
21:50 39.6 °F /  4.2 °C 37.8 °F /  3.2 °C 30in /  1016.3hPa Calm     93% 0in /  0.0mm 0 W/m2
21:55 39.6 °F /  4.2 °C 37.4 °F /  3 °C 30in /  1016.3hPa Calm     92% 0in /  0.0mm 0 W/m2
22:00 39.4 °F /  4.1 °C 37.6 °F /  3.1 °C 30in /  1016.3hPa Calm     93% 0in /  0.0mm 0 W/m2
22:05 39.4 °F /  4.1 °C 37.6 °F /  3.1 °C 30in /  1016.3hPa Calm     93% 0in /  0.0mm 0 W/m2
22:10 39.4 °F /  4.1 °C 37.6 °F /  3.1 °C 30in /  1016.6hPa Calm     93% 0in /  0.0mm 0 W/m2
22:15 39.2 °F /  4 °C 37.4 °F /  3 °C 30in /  1016.6hPa Calm     93% 0in /  0.0mm 0 W/m2
22:20 39 °F /  3.9 °C 37.2 °F /  2.9 °C 30in /  1016.6hPa Calm     93% 0in /  0.0mm 0 W/m2
22:25 38.8 °F /  3.8 °C 37 °F /  2.8 °C 30in /  1016.6hPa Calm     93% 0in /  0.0mm 0 W/m2
22:30 38.8 °F /  3.8 °C 37.2 °F /  2.9 °C 30in /  1016.6hPa Calm     94% 0in /  0.0mm 0 W/m2
22:36 39 °F /  3.9 °C 37.4 °F /  3 °C 30in /  1016.6hPa Calm     94% 0in /  0.0mm 0 W/m2
22:41 39.2 °F /  4 °C 37.6 °F /  3.1 °C 30in /  1016.6hPa Calm     94% 0in /  0.0mm 0 W/m2
22:46 39.4 °F /  4.1 °C 37.8 °F /  3.2 °C 30in /  1016.9hPa Calm     94% 0in /  0.0mm 0 W/m2
22:51 39.4 °F /  4.1 °C 37.6 °F /  3.1 °C 30in /  1016.9hPa Calm     93% 0in /  0.0mm 0 W/m2
22:56 39.6 °F /  4.2 °C 37.8 °F /  3.2 °C 30in /  1016.9hPa Calm     93% 0in /  0.0mm 0 W/m2
23:01 39.6 °F /  4.2 °C 37.8 °F /  3.2 °C 30in /  1016.9hPa Calm     93% 0in /  0.0mm 0 W/m2
23:06 39.7 °F /  4.3 °C 37.9 °F /  3.3 °C 30in /  1016.9hPa Calm     93% 0in /  0.0mm 0 W/m2
23:11 39.7 °F /  4.3 °C 37.9 °F /  3.3 °C 30in /  1016.9hPa Calm     93% 0in /  0.0mm 0 W/m2
23:16 39.9 °F /  4.4 °C 38.1 °F /  3.4 °C 30in /  1016.9hPa Calm     93% 0in /  0.0mm 0 W/m2
23:21 39.9 °F /  4.4 °C 38.1 °F /  3.4 °C 30in /  1016.9hPa Calm     93% 0in /  0.0mm 0 W/m2
23:26 39.9 °F /  4.4 °C 37.8 °F /  3.2 °C 30in /  1016.9hPa Calm     92% 0in /  0.0mm 0 W/m2
23:31 39.9 °F /  4.4 °C 37.8 °F /  3.2 °C 30in /  1016.9hPa Calm   1mph /  1.6km/h 92% 0in /  0.0mm 0 W/m2
23:36 39.7 °F /  4.3 °C 37.6 °F /  3.1 °C 30in /  1016.9hPa Calm     92% 0in /  0.0mm 0 W/m2
23:41 39.7 °F /  4.3 °C 37.6 °F /  3.1 °C 30in /  1016.9hPa Calm   1mph /  1.6km/h 92% 0in /  0.0mm 0 W/m2
23:46 39.6 °F /  4.2 °C 37.4 °F /  3 °C 30in /  1016.9hPa Calm     92% 0in /  0.0mm 0 W/m2
23:51 39.6 °F /  4.2 °C 37.4 °F /  3 °C 30in /  1016.9hPa Calm   1mph /  1.6km/h 92% 0in /  0.0mm 0 W/m2
23:56 39.4 °F /  4.1 °C 37.2 °F /  2.9 °C 30in /  1016.9hPa Calm     92% 0in /  0.0mm 0 W/m2
Juneau County Weather
Compliments of Weather Underground - 4 mb